Stena Germanica — SKPZ — position and weather

sailwx.info

Track history (hours):
 
Tides and Currents Weather Stations Pressure Air Temp Water Temp Dewpoint Dewpoint Depression Visibility Wind Speed Wind Dir Waves Ship Positions

Stena Germanica

Last reported at 2016-Jul-27 04:16 UTC. Time now 2016-Jul-27 07:50 UTC.
Position N 56°03' E 015°37'.

Length 176 m; draft 6.6 m.

Type: Ship (hazmat cat A). MMSI: 265292000.

Date/timePositionNaut miles runAvg speedWind from/ knotsBaromVisibWave heightAir tempDewpointWater temp
2016-Jul-27 04:16N 56°03' E 015°37'6617.3
2016-Jul-27 00:27N 55°26' E 017°16'1617.6
2016-Jul-26 23:33N 55°18' E 017°39'1817.5
2016-Jul-26 22:34N 55°08' E 018°04'1817.8
2016-Jul-26 21:33N 54°58' E 018°30'1818.0
2016-Jul-26 20:33N 54°45' E 018°52'1414.5
2016-Jul-26 19:33N 54°32' E 018°46'9 9.1
2016-Jul-26 18:33N 54°33' E 018°30'0 0.0
2016-Jul-26 17:33N 54°33' E 018°30'1010.3
2016-Jul-26 16:33N 54°33' E 018°48'1514.6
2016-Jul-26 15:33N 54°47' E 018°48'1717.3
2016-Jul-26 14:33N 55°00' E 018°28'1817.9
2016-Jul-26 13:34N 55°10' E 018°02'1817.6
2016-Jul-26 12:33N 55°19' E 017°35'1616.1
2016-Jul-26 11:33N 55°27' E 017°11'1615.9
2016-Jul-26 10:33N 55°36' E 016°47'47 7.4
2016-Jul-26 04:12N 56°02' E 015°38'1114.4
2016-Jul-26 03:26N 55°57' E 015°56'1414.4
2016-Jul-26 02:26N 55°49' E 016°17'1314.4
2016-Jul-26 01:33N 55°41' E 016°35'1414.4
2016-Jul-26 00:34N 55°33' E 016°56'1414.3
2016-Jul-25 23:34N 55°26' E 017°18'1414.4
2016-Jul-25 22:34N 55°18' E 017°39'1514.6
2016-Jul-25 21:34N 55°10' E 018°01'1514.6
2016-Jul-25 20:34N 55°02' E 018°22'1514.6
2016-Jul-25 19:34N 54°52' E 018°41'1514.7
2016-Jul-25 18:34N 54°41' E 018°57'1313.1
2016-Jul-25 17:34N 54°32' E 018°41'7 6.4
2016-Jul-25 16:32N 54°33' E 018°30'0 0.0
2016-Jul-25 15:32N 54°33' E 018°30'0 0.0
2016-Jul-25 14:32N 54°33' E 018°30'0 0.0
2016-Jul-25 13:32N 54°33' E 018°30'0 0.0
2016-Jul-25 12:32N 54°33' E 018°30'0 0.0
2016-Jul-25 11:32N 54°33' E 018°30'0 0.0
2016-Jul-25 10:29N 54°33' E 018°30'0 0.0
2016-Jul-25 09:32N 54°33' E 018°30'0 0.0
2016-Jul-25 08:32N 54°33' E 018°30'0 0.0
2016-Jul-25 07:32N 54°33' E 018°30'2 1.7
2016-Jul-25 06:34N 54°32' E 018°33'1211.9
2016-Jul-25 05:34N 54°35' E 018°53'1312.8
2016-Jul-25 04:34N 54°48' E 018°47'1514.5
2016-Jul-25 03:34N 54°59' E 018°30'1514.6
2016-Jul-25 02:33N 55°07' E 018°09'1414.6
2016-Jul-25 01:34N 55°15' E 017°48'1514.5
2016-Jul-25 00:33N 55°23' E 017°26'4614.9
2016-Jul-24 21:26N 55°48' E 016°18'1815.1
2016-Jul-24 20:13N 55°58' E 015°50'1114.6
2016-Jul-24 19:28N 56°04' E 015°34'1 0.7
2016-Jul-24 17:31N 56°06' E 015°34'6315.6
2016-Jul-24 13:30N 55°30' E 017°05'1516.0
2016-Jul-24 12:33N 55°21' E 017°28'1616.1
2016-Jul-24 11:33N 55°13' E 017°52'1615.9
2016-Jul-24 10:33N 55°04' E 018°15'1616.1
2016-Jul-24 09:33N 54°54' E 018°37'1616.1
2016-Jul-24 08:33N 54°42' E 018°56'1313.0
2016-Jul-24 07:33N 54°32' E 018°42'7 7.0
2016-Jul-24 06:33N 54°33' E 018°30'0 0.0
2016-Jul-24 05:33N 54°33' E 018°30'7 7.2
2016-Jul-24 04:33N 54°32' E 018°43'1312.5
2016-Jul-24 03:33N 54°43' E 018°54'1515.3
2016-Jul-24 02:33N 54°54' E 018°37'1515.4
2016-Jul-24 01:33N 55°04' E 018°15'1615.6
2016-Jul-24 00:33N 55°12' E 017°53'1615.6
2016-Jul-23 23:32N 55°21' E 017°29'4715.6
2016-Jul-23 20:33N 55°47' E 016°21'1615.7
2016-Jul-23 19:32N 55°55' E 015°57'1515.6
2016-Jul-23 18:33N 56°04' E 015°34'4 2.0
2016-Jul-23 16:33N 56°08' E 015°36'1514.6
2016-Jul-23 15:30N 55°57' E 015°55'1717.0
2016-Jul-23 14:29N 55°47' E 016°20'5116.9
2016-Jul-23 11:28N 55°19' E 017°35'2416.9
2016-Jul-23 10:04N 55°06' E 018°10'916.9
2016-Jul-23 09:34N 55°01' E 018°23'1716.7
2016-Jul-23 08:34N 54°51' E 018°45'1514.7
2016-Jul-23 07:34N 54°37' E 018°56'1414.2
2016-Jul-23 06:33N 54°32' E 018°33'1 0.3
2016-Jul-23 04:33N 54°32' E 018°32'1212.3
2016-Jul-23 03:33N 54°35' E 018°52'1313.0
2016-Jul-23 02:33N 54°48' E 018°46'1514.9
2016-Jul-23 01:33N 54°59' E 018°28'1514.9
2016-Jul-23 00:33N 55°07' E 018°07'1515.0
2016-Jul-22 23:33N 55°16' E 017°45'1515.0
2016-Jul-22 22:33N 55°24' E 017°23'1514.5
2016-Jul-22 21:31N 55°32' E 017°01'5914.7
2016-Jul-22 17:33N 56°04' E 015°34'12 1.0
2016-Jul-22 05:33N 55°58' E 015°51'1515.4
2016-Jul-22 04:33N 55°49' E 016°14'1515.3
2016-Jul-22 03:34N 55°41' E 016°36'1515.2
2016-Jul-22 02:33N 55°32' E 016°59'1515.2
2016-Jul-22 01:34N 55°24' E 017°21'1515.1
2016-Jul-22 00:34N 55°16' E 017°43'1515.2
2016-Jul-21 23:34N 55°07' E 018°06'1615.8
2016-Jul-21 22:33N 54°59' E 018°29'1615.7
2016-Jul-21 21:34N 54°47' E 018°48'1313.4
2016-Jul-21 20:34N 54°34' E 018°52'1211.9
2016-Jul-21 19:33N 54°32' E 018°32'1 1.0
2016-Jul-21 18:34N 54°33' E 018°30'1 0.7
2016-Jul-21 17:33N 54°32' E 018°31'1212.4
2016-Jul-21 16:34N 54°35' E 018°52'1414.5
2016-Jul-21 15:34N 54°50' E 018°50'1717.1
2016-Jul-21 14:34N 55°00' E 018°27'1817.2
2016-Jul-21 13:33N 55°11' E 018°02'1717.4
2016-Jul-21 12:33N 55°20' E 017°37'1717.4
2016-Jul-21 11:34N 55°29' E 017°11'1717.3
2016-Jul-21 10:33N 55°39' E 016°45'1717.4
2016-Jul-21 09:33N 55°48' E 016°19'1717.2
2016-Jul-21 08:33N 55°57' E 015°53'1414.2
2016-Jul-21 07:33N 56°07' E 015°35'3 3.3
2016-Jul-21 06:33N 56°10' E 015°38'0 0.2
2016-Jul-21 05:33N 56°10' E 015°38'1212.0
2016-Jul-21 04:33N 55°59' E 015°47'1717.5
2016-Jul-21 03:33N 55°50' E 016°13'1717.5
2016-Jul-21 02:33N 55°40' E 016°39'1717.5
2016-Jul-21 01:34N 55°30' E 017°04'1717.5
2016-Jul-21 00:33N 55°20' E 017°30'1817.9
2016-Jul-20 23:33N 55°11' E 017°56'1817.9
2016-Jul-20 22:33N 55°01' E 018°23'1817.8
2016-Jul-20 21:33N 54°49' E 018°46'1414.3
2016-Jul-20 20:33N 54°36' E 018°54'1312.7
2016-Jul-20 19:33N 54°32' E 018°33'2 1.6
2016-Jul-20 18:32N 54°33' E 018°30'0 0.0
2016-Jul-20 17:33N 54°33' E 018°30'6 5.8
2016-Jul-20 16:33N 54°32' E 018°40'1515.2
2016-Jul-20 15:33N 54°43' E 018°58'1616.1
2016-Jul-20 14:33N 54°55' E 018°39'1716.9
2016-Jul-20 13:33N 55°04' E 018°15'1716.7
2016-Jul-20 12:33N 55°14' E 017°50'1716.9
2016-Jul-20 11:33N 55°23' E 017°25'1716.9
2016-Jul-20 10:33N 55°32' E 017°00'1716.8
2016-Jul-20 09:34N 55°41' E 016°35'1716.9
2016-Jul-20 08:33N 55°50' E 016°10'1716.7
2016-Jul-20 07:32N 56°00' E 015°45'9 3.1
2016-Jul-20 04:33N 56°08' E 015°36'1514.8
2016-Jul-20 03:32N 55°56' E 015°54'1717.2
2016-Jul-20 02:33N 55°47' E 016°19'1717.2
2016-Jul-20 01:34N 55°38' E 016°44'1717.1
2016-Jul-20 00:34N 55°28' E 017°09'1717.2
2016-Jul-19 23:34N 55°19' E 017°35'1717.2
2016-Jul-19 22:33N 55°10' E 018°00'1817.6
2016-Jul-19 21:34N 54°60' E 018°26'1817.6
2016-Jul-19 20:34N 54°48' E 018°48'1514.7
2016-Jul-19 19:34N 54°33' E 018°50'1111.3
2016-Jul-19 18:33N 54°33' E 018°31'0 0.2
2016-Jul-19 17:32N 54°33' E 018°30'1 0.9
2016-Jul-19 16:33N 54°32' E 018°32'1313.2
2016-Jul-19 15:33N 54°36' E 018°53'1716.6
2016-Jul-19 14:33N 54°51' E 018°42'1818.3
2016-Jul-19 13:33N 55°03' E 018°17'1818.4
2016-Jul-19 12:33N 55°13' E 017°50'1818.4
2016-Jul-19 11:34N 55°23' E 017°23'2118.2
2016-Jul-19 10:26N 55°34' E 016°53'60 4.3
2016-Jul-18 20:33N 55°02' E 018°21'1514.7
2016-Jul-18 19:33N 54°53' E 018°41'1514.9
2016-Jul-18 18:33N 54°41' E 018°57'1313.5
2016-Jul-18 17:33N 54°32' E 018°40'6 5.7
2016-Jul-18 16:31N 54°33' E 018°30'0 0.0
2016-Jul-18 15:31N 54°33' E 018°30'0 0.0
2016-Jul-18 14:31N 54°33' E 018°30'0 0.0
2016-Jul-18 13:31N 54°33' E 018°30'0 0.0
2016-Jul-18 12:31N 54°33' E 018°30'0 0.0
2016-Jul-18 11:31N 54°33' E 018°30'0 0.0
2016-Jul-18 10:31N 54°33' E 018°30'0 0.0
2016-Jul-18 09:31N 54°33' E 018°30'0 0.0
2016-Jul-18 08:31N 54°33' E 018°30'0 0.0
2016-Jul-18 07:31N 54°33' E 018°30'1 1.0
2016-Jul-18 06:33N 54°32' E 018°32'1212.1
2016-Jul-18 05:34N 54°35' E 018°52'1413.6
2016-Jul-18 04:34N 54°48' E 018°47'1615.5
2016-Jul-18 03:34N 54°60' E 018°28'1615.6
2016-Jul-18 02:33N 55°08' E 018°06'9 0.5
2016-Jul-17 10:33N 55°03' E 018°18'1616.2
2016-Jul-17 09:33N 54°53' E 018°40'1616.5
2016-Jul-17 08:33N 54°40' E 018°57'1414.4
2016-Jul-17 07:33N 54°32' E 018°36'4 3.5
2016-Jul-17 06:32N 54°33' E 018°30'5 2.7
2016-Jul-17 04:33N 54°32' E 018°40'  
Track history (hours):
 
Tides and Currents Weather Stations Pressure Air Temp Water Temp Dewpoint Dewpoint Depression Visibility Wind Speed Wind Dir Waves Ship Positions

Stena Germanica

Last reported at 2016-Jul-27 04:16 UTC. Time now 2016-Jul-27 07:50 UTC.
Position N 56°03' E 015°37'.

Length 176 m; draft 6.6 m.

Type: Ship (hazmat cat A). MMSI: 265292000.

Date/timePositionNaut miles runAvg speedWind from/ knotsBaromVisibWave heightAir tempDewpointWater temp
2016-Jul-27 04:16N 56°03' E 015°37'6617.3
2016-Jul-27 00:27N 55°26' E 017°16'1617.6
2016-Jul-26 23:33N 55°18' E 017°39'1817.5
2016-Jul-26 22:34N 55°08' E 018°04'1817.8
2016-Jul-26 21:33N 54°58' E 018°30'1818.0
2016-Jul-26 20:33N 54°45' E 018°52'1414.5
2016-Jul-26 19:33N 54°32' E 018°46'9 9.1
2016-Jul-26 18:33N 54°33' E 018°30'0 0.0
2016-Jul-26 17:33N 54°33' E 018°30'1010.3
2016-Jul-26 16:33N 54°33' E 018°48'1514.6
2016-Jul-26 15:33N 54°47' E 018°48'1717.3
2016-Jul-26 14:33N 55°00' E 018°28'1817.9
2016-Jul-26 13:34N 55°10' E 018°02'1817.6
2016-Jul-26 12:33N 55°19' E 017°35'1616.1
2016-Jul-26 11:33N 55°27' E 017°11'1615.9
2016-Jul-26 10:33N 55°36' E 016°47'47 7.4
2016-Jul-26 04:12N 56°02' E 015°38'1114.4
2016-Jul-26 03:26N 55°57' E 015°56'1414.4
2016-Jul-26 02:26N 55°49' E 016°17'1314.4
2016-Jul-26 01:33N 55°41' E 016°35'1414.4
2016-Jul-26 00:34N 55°33' E 016°56'1414.3
2016-Jul-25 23:34N 55°26' E 017°18'1414.4
2016-Jul-25 22:34N 55°18' E 017°39'1514.6
2016-Jul-25 21:34N 55°10' E 018°01'1514.6
2016-Jul-25 20:34N 55°02' E 018°22'1514.6
2016-Jul-25 19:34N 54°52' E 018°41'1514.7
2016-Jul-25 18:34N 54°41' E 018°57'1313.1
2016-Jul-25 17:34N 54°32' E 018°41'7 6.4
2016-Jul-25 16:32N 54°33' E 018°30'0 0.0
2016-Jul-25 15:32N 54°33' E 018°30'0 0.0
2016-Jul-25 14:32N 54°33' E 018°30'0 0.0
2016-Jul-25 13:32N 54°33' E 018°30'0 0.0
2016-Jul-25 12:32N 54°33' E 018°30'0 0.0
2016-Jul-25 11:32N 54°33' E 018°30'0 0.0
2016-Jul-25 10:29N 54°33' E 018°30'0 0.0
2016-Jul-25 09:32N 54°33' E 018°30'0 0.0
2016-Jul-25 08:32N 54°33' E 018°30'0 0.0
2016-Jul-25 07:32N 54°33' E 018°30'2 1.7
2016-Jul-25 06:34N 54°32' E 018°33'1211.9
2016-Jul-25 05:34N 54°35' E 018°53'1312.8
2016-Jul-25 04:34N 54°48' E 018°47'1514.5
2016-Jul-25 03:34N 54°59' E 018°30'1514.6
2016-Jul-25 02:33N 55°07' E 018°09'1414.6
2016-Jul-25 01:34N 55°15' E 017°48'1514.5
2016-Jul-25 00:33N 55°23' E 017°26'4614.9
2016-Jul-24 21:26N 55°48' E 016°18'1815.1
2016-Jul-24 20:13N 55°58' E 015°50'1114.6
2016-Jul-24 19:28N 56°04' E 015°34'1 0.7
2016-Jul-24 17:31N 56°06' E 015°34'6315.6
2016-Jul-24 13:30N 55°30' E 017°05'1516.0
2016-Jul-24 12:33N 55°21' E 017°28'1616.1
2016-Jul-24 11:33N 55°13' E 017°52'1615.9
2016-Jul-24 10:33N 55°04' E 018°15'1616.1
2016-Jul-24 09:33N 54°54' E 018°37'1616.1
2016-Jul-24 08:33N 54°42' E 018°56'1313.0
2016-Jul-24 07:33N 54°32' E 018°42'7 7.0
2016-Jul-24 06:33N 54°33' E 018°30'0 0.0
2016-Jul-24 05:33N 54°33' E 018°30'7 7.2
2016-Jul-24 04:33N 54°32' E 018°43'1312.5
2016-Jul-24 03:33N 54°43' E 018°54'1515.3
2016-Jul-24 02:33N 54°54' E 018°37'1515.4
2016-Jul-24 01:33N 55°04' E 018°15'1615.6
2016-Jul-24 00:33N 55°12' E 017°53'1615.6
2016-Jul-23 23:32N 55°21' E 017°29'4715.6
2016-Jul-23 20:33N 55°47' E 016°21'1615.7
2016-Jul-23 19:32N 55°55' E 015°57'1515.6
2016-Jul-23 18:33N 56°04' E 015°34'4 2.0
2016-Jul-23 16:33N 56°08' E 015°36'1514.6
2016-Jul-23 15:30N 55°57' E 015°55'1717.0
2016-Jul-23 14:29N 55°47' E 016°20'5116.9
2016-Jul-23 11:28N 55°19' E 017°35'2416.9
2016-Jul-23 10:04N 55°06' E 018°10'916.9
2016-Jul-23 09:34N 55°01' E 018°23'1716.7
2016-Jul-23 08:34N 54°51' E 018°45'1514.7
2016-Jul-23 07:34N 54°37' E 018°56'1414.2
2016-Jul-23 06:33N 54°32' E 018°33'1 0.3
2016-Jul-23 04:33N 54°32' E 018°32'1212.3
2016-Jul-23 03:33N 54°35' E 018°52'1313.0
2016-Jul-23 02:33N 54°48' E 018°46'1514.9
2016-Jul-23 01:33N 54°59' E 018°28'1514.9
2016-Jul-23 00:33N 55°07' E 018°07'1515.0
2016-Jul-22 23:33N 55°16' E 017°45'1515.0
2016-Jul-22 22:33N 55°24' E 017°23'1514.5
2016-Jul-22 21:31N 55°32' E 017°01'5914.7
2016-Jul-22 17:33N 56°04' E 015°34'12 1.0
2016-Jul-22 05:33N 55°58' E 015°51'1515.4
2016-Jul-22 04:33N 55°49' E 016°14'1515.3
2016-Jul-22 03:34N 55°41' E 016°36'1515.2
2016-Jul-22 02:33N 55°32' E 016°59'1515.2
2016-Jul-22 01:34N 55°24' E 017°21'1515.1
2016-Jul-22 00:34N 55°16' E 017°43'1515.2
2016-Jul-21 23:34N 55°07' E 018°06'1615.8
2016-Jul-21 22:33N 54°59' E 018°29'1615.7
2016-Jul-21 21:34N 54°47' E 018°48'1313.4
2016-Jul-21 20:34N 54°34' E 018°52'1211.9
2016-Jul-21 19:33N 54°32' E 018°32'1 1.0
2016-Jul-21 18:34N 54°33' E 018°30'1 0.7
2016-Jul-21 17:33N 54°32' E 018°31'1212.4
2016-Jul-21 16:34N 54°35' E 018°52'1414.5
2016-Jul-21 15:34N 54°50' E 018°50'1717.1
2016-Jul-21 14:34N 55°00' E 018°27'1817.2
2016-Jul-21 13:33N 55°11' E 018°02'1717.4
2016-Jul-21 12:33N 55°20' E 017°37'1717.4
2016-Jul-21 11:34N 55°29' E 017°11'1717.3
2016-Jul-21 10:33N 55°39' E 016°45'1717.4
2016-Jul-21 09:33N 55°48' E 016°19'1717.2
2016-Jul-21 08:33N 55°57' E 015°53'1414.2
2016-Jul-21 07:33N 56°07' E 015°35'3 3.3
2016-Jul-21 06:33N 56°10' E 015°38'0 0.2
2016-Jul-21 05:33N 56°10' E 015°38'1212.0
2016-Jul-21 04:33N 55°59' E 015°47'1717.5
2016-Jul-21 03:33N 55°50' E 016°13'1717.5
2016-Jul-21 02:33N 55°40' E 016°39'1717.5
2016-Jul-21 01:34N 55°30' E 017°04'1717.5
2016-Jul-21 00:33N 55°20' E 017°30'1817.9
2016-Jul-20 23:33N 55°11' E 017°56'1817.9
2016-Jul-20 22:33N 55°01' E 018°23'1817.8
2016-Jul-20 21:33N 54°49' E 018°46'1414.3
2016-Jul-20 20:33N 54°36' E 018°54'1312.7
2016-Jul-20 19:33N 54°32' E 018°33'2 1.6
2016-Jul-20 18:32N 54°33' E 018°30'0 0.0
2016-Jul-20 17:33N 54°33' E 018°30'6 5.8
2016-Jul-20 16:33N 54°32' E 018°40'1515.2
2016-Jul-20 15:33N 54°43' E 018°58'1616.1
2016-Jul-20 14:33N 54°55' E 018°39'1716.9
2016-Jul-20 13:33N 55°04' E 018°15'1716.7
2016-Jul-20 12:33N 55°14' E 017°50'1716.9
2016-Jul-20 11:33N 55°23' E 017°25'1716.9
2016-Jul-20 10:33N 55°32' E 017°00'1716.8
2016-Jul-20 09:34N 55°41' E 016°35'1716.9
2016-Jul-20 08:33N 55°50' E 016°10'1716.7
2016-Jul-20 07:32N 56°00' E 015°45'9 3.1
2016-Jul-20 04:33N 56°08' E 015°36'1514.8
2016-Jul-20 03:32N 55°56' E 015°54'1717.2
2016-Jul-20 02:33N 55°47' E 016°19'1717.2
2016-Jul-20 01:34N 55°38' E 016°44'1717.1
2016-Jul-20 00:34N 55°28' E 017°09'1717.2
2016-Jul-19 23:34N 55°19' E 017°35'1717.2
2016-Jul-19 22:33N 55°10' E 018°00'1817.6
2016-Jul-19 21:34N 54°60' E 018°26'1817.6
2016-Jul-19 20:34N 54°48' E 018°48'1514.7
2016-Jul-19 19:34N 54°33' E 018°50'1111.3
2016-Jul-19 18:33N 54°33' E 018°31'0 0.2
2016-Jul-19 17:32N 54°33' E 018°30'1 0.9
2016-Jul-19 16:33N 54°32' E 018°32'1313.2
2016-Jul-19 15:33N 54°36' E 018°53'1716.6
2016-Jul-19 14:33N 54°51' E 018°42'1818.3
2016-Jul-19 13:33N 55°03' E 018°17'1818.4
2016-Jul-19 12:33N 55°13' E 017°50'1818.4
2016-Jul-19 11:34N 55°23' E 017°23'2118.2
2016-Jul-19 10:26N 55°34' E 016°53'60 4.3
2016-Jul-18 20:33N 55°02' E 018°21'1514.7
2016-Jul-18 19:33N 54°53' E 018°41'1514.9
2016-Jul-18 18:33N 54°41' E 018°57'1313.5
2016-Jul-18 17:33N 54°32' E 018°40'6 5.7
2016-Jul-18 16:31N 54°33' E 018°30'0 0.0
2016-Jul-18 15:31N 54°33' E 018°30'0 0.0
2016-Jul-18 14:31N 54°33' E 018°30'0 0.0
2016-Jul-18 13:31N 54°33' E 018°30'0 0.0
2016-Jul-18 12:31N 54°33' E 018°30'0 0.0
2016-Jul-18 11:31N 54°33' E 018°30'0 0.0
2016-Jul-18 10:31N 54°33' E 018°30'0 0.0
2016-Jul-18 09:31N 54°33' E 018°30'0 0.0
2016-Jul-18 08:31N 54°33' E 018°30'0 0.0
2016-Jul-18 07:31N 54°33' E 018°30'1 1.0
2016-Jul-18 06:33N 54°32' E 018°32'1212.1
2016-Jul-18 05:34N 54°35' E 018°52'1413.6
2016-Jul-18 04:34N 54°48' E 018°47'1615.5
2016-Jul-18 03:34N 54°60' E 018°28'1615.6
2016-Jul-18 02:33N 55°08' E 018°06'9 0.5
2016-Jul-17 10:33N 55°03' E 018°18'1616.2
2016-Jul-17 09:33N 54°53' E 018°40'1616.5
2016-Jul-17 08:33N 54°40' E 018°57'1414.4
2016-Jul-17 07:33N 54°32' E 018°36'4 3.5
2016-Jul-17 06:32N 54°33' E 018°30'5 2.7
2016-Jul-17 04:33N 54°32' E 018°40'  

Dump ship's entire track history